createdAt,value
2018-07-22T00:02:11.613Z,27.60
2018-07-22T00:04:39.310Z,27.50
2018-07-22T00:07:08.618Z,26.30
2018-07-22T00:09:36.246Z,28.00
2018-07-22T00:12:03.910Z,27.80
2018-07-22T00:14:31.951Z,28.70
2018-07-22T00:17:00.826Z,28.70
2018-07-22T00:19:28.448Z,28.10
2018-07-22T00:21:57.502Z,28.70
2018-07-22T00:24:25.077Z,28.10
2018-07-22T00:26:52.775Z,28.60
2018-07-22T00:29:20.456Z,28.40
2018-07-22T00:31:48.984Z,28.60
2018-07-22T00:34:17.670Z,28.20
2018-07-22T00:36:45.298Z,27.60
2018-07-22T00:39:12.901Z,27.20
2018-07-22T00:41:40.630Z,27.50
2018-07-22T00:44:08.398Z,27.60
2018-07-22T00:46:36.186Z,27.70
2018-07-22T00:49:03.826Z,27.00
2018-07-22T00:51:31.427Z,27.60
2018-07-22T00:54:03.127Z,27.00
2018-07-22T00:56:31.385Z,26.70
2018-07-22T00:58:59.025Z,27.40
2018-07-22T01:01:26.666Z,26.70
2018-07-22T01:03:54.324Z,27.70
2018-07-22T01:06:22.244Z,26.30
2018-07-22T01:08:49.837Z,26.70
2018-07-22T01:11:17.489Z,26.80
2018-07-22T01:13:45.127Z,27.40
2018-07-22T01:16:12.803Z,26.10
2018-07-22T01:18:40.459Z,25.90
2018-07-22T01:21:08.192Z,26.60
2018-07-22T01:23:35.882Z,26.90
2018-07-22T01:26:03.502Z,25.60
2018-07-22T01:28:31.121Z,26.50
2018-07-22T01:30:58.757Z,27.20
2018-07-22T01:33:26.363Z,25.40
2018-07-22T01:35:53.930Z,25.50
2018-07-22T01:38:21.565Z,26.80
2018-07-22T01:40:49.229Z,26.20
2018-07-22T01:43:16.898Z,26.70
2018-07-22T01:45:44.499Z,27.90
2018-07-22T01:48:12.082Z,27.40
2018-07-22T01:50:39.723Z,28.10
2018-07-22T01:53:07.326Z,28.00
2018-07-22T01:55:34.944Z,28.50
2018-07-22T01:58:02.710Z,28.80
2018-07-22T02:00:30.403Z,28.60
2018-07-22T02:02:58.873Z,29.40
2018-07-22T02:05:27.431Z,28.80
2018-07-22T02:07:55.312Z,28.00
2018-07-22T02:10:22.931Z,28.00
2018-07-22T02:12:50.535Z,28.00
2018-07-22T02:15:18.111Z,29.10
2018-07-22T02:17:45.718Z,30.90
2018-07-22T02:20:13.329Z,29.80
2018-07-22T02:22:40.902Z,30.00
2018-07-22T02:25:08.470Z,30.50
2018-07-22T02:27:36.082Z,31.90
2018-07-22T02:30:04.533Z,29.70
2018-07-22T02:32:32.198Z,29.50
2018-07-22T02:34:59.822Z,29.30
2018-07-22T02:37:30.114Z,29.50
2018-07-22T02:39:57.701Z,29.60
2018-07-22T02:42:25.313Z,30.10
2018-07-22T02:44:52.976Z,30.30
2018-07-22T02:47:20.846Z,28.80
2018-07-22T02:49:48.535Z,30.20
2018-07-22T02:52:16.134Z,29.80
2018-07-22T02:54:43.835Z,29.80
2018-07-22T02:57:11.459Z,29.60
2018-07-22T02:59:39.018Z,29.40
2018-07-22T03:02:06.610Z,30.00
2018-07-22T03:04:34.214Z,31.60
2018-07-22T03:07:01.876Z,32.70
2018-07-22T03:09:29.510Z,32.60
2018-07-22T03:11:57.114Z,31.50
2018-07-22T03:14:25.462Z,31.70
2018-07-22T03:16:53.012Z,33.00
2018-07-22T03:19:20.640Z,31.10
2018-07-22T03:21:48.292Z,31.70
2018-07-22T03:24:15.858Z,31.40
2018-07-22T03:26:45.143Z,32.20
2018-07-22T03:29:12.679Z,32.80
2018-07-22T03:31:40.260Z,32.50
2018-07-22T03:34:07.974Z,34.60
2018-07-22T03:36:35.494Z,36.70
2018-07-22T03:39:04.908Z,35.10
2018-07-22T03:41:32.599Z,37.60
2018-07-22T03:44:00.226Z,36.20
2018-07-22T03:46:28.174Z,38.40
2018-07-22T03:48:55.812Z,37.30
2018-07-22T03:51:24.196Z,37.20
2018-07-22T03:53:54.935Z,36.90
2018-07-22T03:56:22.479Z,34.70
2018-07-22T03:58:50.125Z,36.00
2018-07-22T04:01:21.134Z,35.20
2018-07-22T04:03:48.814Z,35.00
2018-07-22T04:06:16.461Z,35.50
2018-07-22T04:08:44.234Z,39.00
2018-07-22T04:11:11.887Z,39.00
2018-07-22T04:13:39.554Z,37.80
2018-07-22T04:16:07.330Z,37.90
2018-07-22T04:18:46.702Z,36.80
2018-07-22T04:21:14.384Z,38.10
2018-07-22T04:23:44.601Z,37.00
2018-07-22T04:26:12.230Z,38.50
2018-07-22T04:28:39.867Z,36.50
2018-07-22T04:31:07.651Z,40.10
2018-07-22T04:33:35.341Z,39.00
2018-07-22T04:36:03.096Z,38.50
2018-07-22T04:38:30.841Z,38.20
2018-07-22T04:40:58.467Z,38.10
2018-07-22T04:43:26.102Z,39.90
2018-07-22T04:45:53.695Z,41.50
2018-07-22T04:48:21.322Z,43.00
2018-07-22T04:50:48.981Z,41.40
2018-07-22T04:53:16.622Z,41.90
2018-07-22T04:55:44.242Z,44.50
2018-07-22T04:58:11.787Z,44.40
2018-07-22T05:00:39.323Z,44.10
2018-07-22T05:03:06.962Z,44.20
2018-07-22T05:05:34.523Z,44.10
2018-07-22T05:08:02.265Z,45.00
2018-07-22T05:10:30.933Z,45.30
2018-07-22T05:12:58.494Z,44.90
2018-07-22T05:15:26.204Z,43.00
2018-07-22T05:17:53.804Z,45.50
2018-07-22T05:20:21.354Z,46.60
2018-07-22T05:22:48.908Z,45.60
2018-07-22T05:25:16.474Z,45.60
2018-07-22T05:27:43.990Z,47.80
2018-07-22T05:30:11.548Z,48.30
2018-07-22T05:32:39.117Z,46.80
2018-07-22T05:35:06.734Z,47.40
2018-07-22T05:37:34.417Z,48.30
2018-07-22T05:40:02.934Z,48.40
2018-07-22T05:42:30.489Z,48.90
2018-07-22T05:44:58.008Z,49.80
2018-07-22T05:47:25.611Z,49.70
2018-07-22T05:49:53.379Z,51.70
2018-07-22T05:54:48.606Z,49.20
2018-07-22T05:57:16.238Z,50.40
2018-07-22T05:59:43.980Z,49.10
2018-07-22T06:02:11.741Z,47.70
2018-07-22T06:04:39.198Z,46.40
2018-07-22T06:07:06.802Z,46.40
2018-07-22T06:09:34.490Z,46.20
2018-07-22T06:12:04.338Z,45.20
2018-07-22T06:14:33.618Z,44.20
2018-07-22T06:17:01.019Z,43.10
2018-07-22T06:19:28.467Z,41.90
2018-07-22T06:21:55.977Z,41.80
2018-07-22T06:24:23.406Z,41.80
2018-07-22T06:26:54.630Z,39.40
2018-07-22T06:29:22.042Z,37.80
2018-07-22T06:31:49.484Z,37.50
2018-07-22T06:34:16.894Z,38.40
2018-07-22T06:36:44.307Z,36.30
2018-07-22T06:39:13.430Z,37.30
2018-07-22T06:41:42.055Z,36.80
2018-07-22T06:44:09.710Z,37.30
2018-07-22T06:46:37.164Z,34.10
2018-07-22T06:49:04.618Z,33.90
2018-07-22T06:51:32.016Z,33.70
2018-07-22T06:53:59.433Z,31.70
2018-07-22T06:56:26.831Z,31.20
2018-07-22T06:58:54.762Z,31.00
2018-07-22T07:01:22.150Z,31.40
2018-07-22T07:03:49.546Z,31.50
2018-07-22T07:06:16.964Z,29.20
2018-07-22T07:08:44.298Z,29.10
2018-07-22T07:11:11.655Z,24.70
2018-07-22T07:13:39.046Z,23.60
2018-07-22T07:16:06.464Z,24.60
2018-07-22T07:18:33.927Z,22.40
2018-07-22T07:21:01.286Z,22.60
2018-07-22T07:23:28.666Z,21.50
2018-07-22T07:25:56.278Z,19.40
2018-07-22T07:28:23.654Z,19.10
2018-07-22T07:30:50.979Z,19.20
2018-07-22T07:33:18.850Z,19.60
2018-07-22T07:35:46.165Z,16.90
2018-07-22T07:38:13.494Z,16.40
2018-07-22T07:40:40.850Z,12.30
2018-07-22T07:43:08.215Z,9.50
2018-07-22T07:45:35.581Z,6.80
2018-07-22T07:48:03.063Z,1.30
2018-07-22T07:50:30.703Z,1.00
2018-07-22T07:52:58.116Z,1.00
2018-07-22T07:55:25.453Z,1.00
2018-07-22T07:57:54.510Z,1.00
2018-07-22T08:00:21.901Z,1.00
2018-07-22T08:02:49.329Z,1.00
2018-07-22T08:05:17.621Z,1.00
2018-07-22T08:07:45.280Z,1.00
2018-07-22T08:10:12.686Z,1.00
2018-07-22T08:12:40.186Z,1.00
2018-07-22T08:15:07.642Z,1.00
2018-07-22T08:17:35.115Z,1.00
2018-07-22T08:20:02.821Z,1.00
2018-07-22T08:22:30.249Z,1.00
2018-07-22T08:24:57.963Z,1.00
2018-07-22T08:27:25.462Z,1.00
2018-07-22T08:29:52.942Z,1.00
2018-07-22T08:32:20.360Z,1.00
2018-07-22T08:34:47.766Z,1.00
2018-07-22T08:37:15.186Z,1.00
2018-07-22T08:39:42.581Z,1.00
2018-07-22T08:42:10.249Z,1.00
2018-07-22T08:44:37.880Z,1.00
2018-07-22T08:47:05.640Z,1.00
2018-07-22T08:49:33.306Z,1.00
2018-07-22T08:52:00.894Z,1.00
2018-07-22T08:54:28.506Z,1.00
2018-07-22T08:56:56.119Z,1.00
2018-07-22T08:59:23.698Z,1.00
2018-07-22T09:01:51.338Z,1.00
2018-07-22T09:04:18.961Z,1.00
2018-07-22T09:06:46.386Z,1.00
2018-07-22T09:09:14.205Z,1.00
2018-07-22T09:11:41.896Z,1.00
2018-07-22T09:14:09.818Z,1.00
2018-07-22T09:16:37.495Z,1.00
2018-07-22T09:19:05.222Z,1.00
2018-07-22T09:21:33.037Z,1.00
2018-07-22T09:24:00.746Z,1.00
2018-07-22T09:26:28.343Z,1.00
2018-07-22T09:28:55.963Z,1.00
2018-07-22T09:31:23.540Z,1.00
2018-07-22T09:33:52.609Z,1.00
2018-07-22T09:36:20.349Z,1.00
2018-07-22T09:38:48.214Z,1.00
2018-07-22T09:41:15.586Z,1.00
2018-07-22T09:43:45.182Z,1.00
2018-07-22T09:46:12.514Z,1.00
2018-07-22T09:48:40.196Z,1.00
2018-07-22T09:51:07.615Z,1.00
2018-07-22T09:53:37.056Z,1.00
2018-07-22T09:56:04.540Z,1.00
2018-07-22T09:58:32.012Z,1.00
2018-07-22T10:01:00.390Z,1.00
2018-07-22T10:03:28.889Z,1.00
2018-07-22T10:05:56.789Z,1.00
2018-07-22T10:08:24.554Z,1.00
2018-07-22T10:10:52.169Z,1.00
2018-07-22T10:13:19.775Z,1.00
2018-07-22T10:15:47.406Z,1.00
2018-07-22T10:18:15.043Z,1.00
2018-07-22T10:20:42.677Z,1.00
2018-07-22T10:23:10.335Z,1.00
2018-07-22T10:25:37.937Z,1.00
2018-07-22T10:28:05.574Z,1.00
2018-07-22T10:30:33.154Z,1.00
2018-07-22T10:33:00.806Z,1.00
2018-07-22T10:35:28.516Z,1.00
2018-07-22T10:37:56.108Z,1.00
2018-07-22T10:40:23.795Z,1.00
2018-07-22T10:42:53.468Z,1.00
2018-07-22T10:45:21.211Z,1.00
2018-07-22T10:47:48.572Z,1.00
2018-07-22T10:50:15.977Z,1.00
2018-07-22T10:52:43.361Z,1.00
2018-07-22T10:55:10.760Z,1.00
2018-07-22T10:57:38.154Z,1.00
2018-07-22T11:00:06.281Z,1.00
2018-07-22T11:02:33.720Z,1.00
2018-07-22T11:05:01.294Z,1.00
2018-07-22T11:07:28.876Z,1.00
2018-07-22T11:09:56.446Z,1.00
2018-07-22T11:12:24.047Z,1.00
2018-07-22T11:14:51.790Z,1.00
2018-07-22T11:17:19.351Z,1.00
2018-07-22T11:19:46.995Z,1.00
2018-07-22T11:24:42.570Z,1.00
2018-07-22T11:27:10.090Z,1.00
2018-07-22T11:29:37.665Z,1.00
2018-07-22T11:32:05.306Z,1.00
2018-07-22T11:34:32.858Z,1.00
2018-07-22T11:37:00.667Z,1.00
2018-07-22T11:39:28.302Z,1.00
2018-07-22T11:41:55.989Z,1.00
2018-07-22T11:44:23.591Z,1.00
2018-07-22T11:46:51.118Z,1.00
2018-07-22T11:49:18.742Z,1.00
2018-07-22T11:51:46.333Z,1.00
2018-07-22T11:54:14.049Z,1.00
2018-07-22T11:56:42.330Z,1.00
2018-07-22T11:59:09.726Z,1.00
2018-07-22T12:01:38.719Z,1.00
2018-07-22T12:04:06.305Z,1.00
2018-07-22T12:06:33.942Z,1.00
2018-07-22T12:09:01.452Z,1.00
2018-07-22T12:11:28.916Z,1.00
2018-07-22T12:13:56.373Z,1.00
2018-07-22T12:16:23.791Z,1.00
2018-07-22T12:18:51.391Z,1.00
2018-07-22T12:21:19.187Z,1.00
2018-07-22T12:23:46.609Z,1.00
2018-07-22T12:26:16.609Z,1.00
2018-07-22T12:28:45.467Z,1.00
2018-07-22T12:31:13.138Z,1.00
2018-07-22T12:33:41.389Z,1.00
2018-07-22T12:36:09.075Z,1.00
2018-07-22T12:38:36.544Z,1.00
2018-07-22T12:41:05.465Z,1.00
2018-07-22T12:43:32.910Z,1.00
2018-07-22T12:46:00.433Z,1.00
2018-07-22T12:48:28.066Z,1.00
2018-07-22T12:55:50.485Z,1.00
2018-07-22T12:58:18.015Z,1.00
2018-07-22T13:00:45.553Z,1.00
2018-07-22T13:03:13.214Z,1.00
2018-07-22T13:05:43.186Z,1.00
2018-07-22T13:08:10.531Z,1.00
2018-07-22T13:10:38.001Z,1.00
2018-07-22T13:13:05.443Z,1.00
2018-07-22T13:15:32.766Z,1.00
2018-07-22T13:18:00.100Z,1.00
2018-07-22T13:20:27.694Z,1.00
2018-07-22T13:22:55.324Z,1.00
2018-07-22T13:25:23.041Z,1.00
2018-07-22T13:27:50.738Z,1.00
2018-07-22T13:30:18.137Z,1.00
2018-07-22T13:32:45.487Z,1.00
2018-07-22T13:35:12.878Z,1.00
2018-07-22T13:37:40.269Z,1.00
2018-07-22T13:40:08.017Z,1.00
2018-07-22T13:42:35.381Z,1.00
2018-07-22T13:45:03.722Z,1.00
2018-07-22T13:47:31.047Z,1.00
2018-07-22T13:50:00.567Z,1.00
2018-07-22T13:52:27.950Z,1.00
2018-07-22T13:54:55.447Z,1.00
2018-07-22T13:57:22.838Z,1.00
2018-07-22T13:59:50.232Z,1.00
2018-07-22T14:02:17.670Z,1.00
2018-07-22T14:04:45.058Z,1.00
2018-07-22T14:07:12.441Z,1.00
2018-07-22T14:09:39.843Z,1.00
2018-07-22T14:12:07.411Z,1.00
2018-07-22T14:14:34.903Z,1.00
2018-07-22T14:17:02.353Z,1.00
2018-07-22T14:19:29.807Z,1.00
2018-07-22T14:21:58.636Z,1.00
2018-07-22T14:24:36.367Z,1.00
2018-07-22T14:27:05.080Z,1.00
2018-07-22T14:29:32.983Z,1.00
2018-07-22T14:32:00.413Z,1.00
2018-07-22T14:34:31.132Z,1.00
2018-07-22T14:36:59.269Z,1.00
2018-07-22T14:39:26.586Z,1.00
2018-07-22T14:41:54.123Z,1.00
2018-07-22T14:44:21.537Z,1.00
2018-07-22T14:46:48.958Z,1.00
2018-07-22T14:49:16.270Z,1.00
2018-07-22T14:51:44.904Z,1.00
2018-07-22T14:54:12.298Z,1.00
2018-07-22T14:56:39.788Z,1.00
2018-07-22T14:59:07.319Z,1.00
2018-07-22T15:01:34.675Z,1.00
2018-07-22T15:04:05.050Z,1.00
2018-07-22T15:06:32.428Z,1.00
2018-07-22T15:09:00.232Z,1.00
2018-07-22T15:13:55.149Z,1.00
2018-07-22T15:16:27.762Z,1.00
2018-07-22T15:18:55.119Z,1.00
2018-07-22T15:21:26.046Z,1.00
2018-07-22T15:23:54.502Z,1.00
2018-07-22T15:26:21.994Z,1.00
2018-07-22T15:28:49.407Z,1.00
2018-07-22T15:31:16.836Z,1.00
2018-07-22T15:33:44.303Z,1.00
2018-07-22T15:36:11.746Z,1.00
2018-07-22T15:38:43.538Z,1.00
2018-07-22T15:41:10.914Z,1.00
2018-07-22T15:43:38.282Z,1.00
2018-07-22T15:46:05.765Z,1.00
2018-07-22T15:48:33.262Z,1.00
2018-07-22T15:51:04.405Z,1.00
2018-07-22T15:53:31.839Z,1.00
2018-07-22T15:55:59.821Z,1.00
2018-07-22T15:58:27.198Z,1.00
2018-07-22T16:00:54.736Z,1.00
2018-07-22T16:03:27.428Z,1.00
2018-07-22T16:05:54.884Z,1.00
2018-07-22T16:08:23.819Z,1.00
2018-07-22T16:10:51.910Z,1.00
2018-07-22T16:13:23.204Z,1.00
2018-07-22T16:15:51.905Z,1.00
2018-07-22T16:18:19.325Z,1.00
2018-07-22T16:20:46.877Z,1.00
2018-07-22T16:23:14.367Z,1.00
2018-07-22T16:25:41.710Z,1.00
2018-07-22T16:28:09.195Z,1.00
2018-07-22T16:30:36.690Z,1.00
2018-07-22T16:33:04.177Z,1.00
2018-07-22T16:35:31.522Z,1.00
2018-07-22T16:37:58.886Z,1.00
2018-07-22T16:40:26.303Z,1.00
2018-07-22T16:42:53.782Z,1.00
2018-07-22T16:45:21.214Z,1.00
2018-07-22T16:50:16.451Z,1.00
2018-07-22T16:52:43.806Z,1.00
2018-07-22T16:55:11.199Z,1.00
2018-07-22T16:57:38.601Z,1.00
2018-07-22T17:00:06.097Z,1.00
2018-07-22T17:02:33.537Z,1.00
2018-07-22T17:05:01.041Z,1.00
2018-07-22T17:07:28.477Z,1.00
2018-07-22T17:09:55.810Z,1.00
2018-07-22T17:12:25.701Z,1.00
2018-07-22T17:14:53.199Z,1.00
2018-07-22T17:17:20.590Z,1.00
2018-07-22T17:19:48.235Z,1.00
2018-07-22T17:22:15.984Z,1.00
2018-07-22T17:24:43.463Z,1.00
2018-07-22T17:27:10.826Z,1.00
2018-07-22T17:29:38.301Z,1.00
2018-07-22T17:32:05.764Z,1.00
2018-07-22T17:34:33.783Z,1.00
2018-07-22T17:37:01.186Z,1.00
2018-07-22T17:39:28.510Z,1.00
2018-07-22T17:41:55.866Z,1.00
2018-07-22T17:44:23.284Z,1.00
2018-07-22T17:46:50.652Z,1.00
2018-07-22T17:49:18.034Z,1.00
2018-07-22T17:51:45.602Z,1.00
2018-07-22T17:54:13.136Z,1.00
2018-07-22T17:56:40.427Z,1.00
2018-07-22T17:59:08.204Z,1.00
2018-07-22T18:01:35.652Z,1.00
2018-07-22T18:04:03.342Z,1.00
2018-07-22T18:06:30.932Z,1.00
2018-07-22T18:08:58.441Z,1.00
2018-07-22T18:11:25.845Z,1.00
2018-07-22T18:13:53.177Z,1.00
2018-07-22T18:18:48.037Z,1.00
2018-07-22T18:21:15.593Z,1.00
2018-07-22T18:23:43.073Z,1.00
2018-07-22T18:26:10.712Z,1.00
2018-07-22T18:28:38.498Z,1.00
2018-07-22T18:31:06.158Z,1.00
2018-07-22T18:33:33.614Z,1.00
2018-07-22T18:36:01.479Z,1.00
2018-07-22T18:38:29.117Z,1.00
2018-07-22T18:40:56.857Z,1.00
2018-07-22T18:43:24.722Z,1.00
2018-07-22T18:45:52.287Z,1.00
2018-07-22T18:48:20.043Z,1.00
2018-07-22T18:50:47.665Z,1.00
2018-07-22T18:53:15.439Z,1.00
2018-07-22T18:55:43.088Z,1.00
2018-07-22T18:58:10.961Z,1.00
2018-07-22T19:00:38.687Z,1.00
2018-07-22T19:03:06.375Z,1.00
2018-07-22T19:05:34.037Z,1.00
2018-07-22T19:08:01.577Z,1.00
2018-07-22T19:10:29.302Z,1.00
2018-07-22T19:12:58.912Z,1.00
2018-07-22T19:15:26.631Z,1.00
2018-07-22T19:17:54.246Z,1.00
2018-07-22T19:20:21.953Z,1.00
2018-07-22T19:22:49.494Z,1.00
2018-07-22T19:25:17.118Z,1.00
2018-07-22T19:27:44.840Z,1.00
2018-07-22T19:30:12.649Z,1.00
2018-07-22T19:32:40.516Z,1.00
2018-07-22T19:35:08.069Z,1.00
2018-07-22T19:37:35.818Z,1.00
2018-07-22T19:40:04.720Z,1.00
2018-07-22T19:42:32.442Z,1.00
2018-07-22T19:44:59.918Z,1.00
2018-07-22T19:47:27.311Z,1.00
2018-07-22T19:49:54.777Z,1.00
2018-07-22T19:52:22.182Z,1.00
2018-07-22T19:54:54.634Z,1.00
2018-07-22T19:57:22.038Z,1.00
2018-07-22T19:59:49.537Z,1.00
2018-07-22T20:02:16.976Z,1.00
2018-07-22T20:04:44.390Z,1.00
2018-07-22T20:07:11.865Z,1.00
2018-07-22T20:09:39.478Z,1.00
2018-07-22T20:12:06.941Z,1.00
2018-07-22T20:14:34.350Z,1.00
2018-07-22T20:17:02.840Z,1.00
2018-07-22T20:19:30.283Z,1.00
2018-07-22T20:21:57.818Z,1.00
2018-07-22T20:24:25.342Z,1.00
2018-07-22T20:26:52.628Z,1.00
2018-07-22T20:29:20.050Z,1.00
2018-07-22T20:31:47.563Z,1.00
2018-07-22T20:34:14.942Z,1.00
2018-07-22T20:36:42.350Z,1.00
2018-07-22T20:39:10.838Z,1.00
2018-07-22T20:41:39.277Z,1.00
2018-07-22T20:44:06.728Z,1.00
2018-07-22T20:46:34.242Z,1.00
2018-07-22T20:49:01.691Z,1.00
2018-07-22T20:51:29.137Z,1.00
2018-07-22T20:53:56.563Z,1.00
2018-07-22T20:56:24.024Z,1.00
2018-07-22T20:58:51.486Z,1.00
2018-07-22T21:01:18.947Z,1.00
2018-07-22T21:03:46.425Z,1.00
2018-07-22T21:06:14.255Z,1.00
2018-07-22T21:08:41.634Z,1.00
2018-07-22T21:11:09.022Z,1.00
2018-07-22T21:13:36.486Z,1.00
2018-07-22T21:16:03.939Z,1.00
2018-07-22T21:18:31.502Z,1.00
2018-07-22T21:20:59.085Z,1.00
2018-07-22T21:23:26.529Z,1.00
2018-07-22T21:25:53.999Z,1.00
2018-07-22T21:28:21.405Z,1.00
2018-07-22T21:30:48.967Z,1.00
2018-07-22T21:33:16.495Z,1.00
2018-07-22T21:35:43.907Z,1.00
2018-07-22T21:38:11.307Z,1.00
2018-07-22T21:40:38.739Z,1.00
2018-07-22T21:43:06.228Z,1.00
2018-07-22T21:45:33.713Z,1.00
2018-07-22T21:48:01.183Z,1.00
2018-07-22T21:50:28.591Z,1.00
2018-07-22T21:52:55.993Z,1.00
2018-07-22T21:55:23.553Z,1.00
2018-07-22T21:57:50.963Z,1.00
2018-07-22T22:00:21.894Z,1.00
2018-07-22T22:02:49.633Z,1.00
2018-07-22T22:05:17.168Z,1.00
2018-07-22T22:07:44.550Z,1.00
2018-07-22T22:10:11.919Z,1.00
2018-07-22T22:12:39.442Z,1.00
2018-07-22T22:15:14.323Z,1.00
2018-07-22T22:17:41.910Z,1.00
2018-07-22T22:20:09.279Z,1.00
2018-07-22T22:22:37.188Z,1.00
2018-07-22T22:25:05.118Z,1.00
2018-07-22T22:27:32.493Z,1.00
2018-07-22T22:29:59.847Z,1.00
2018-07-22T22:32:27.259Z,1.00
2018-07-22T22:34:54.702Z,1.00
2018-07-22T22:37:22.262Z,1.00
2018-07-22T22:39:49.692Z,1.00
2018-07-22T22:42:17.063Z,1.00
2018-07-22T22:44:44.683Z,1.00
2018-07-22T22:49:39.388Z,1.00
2018-07-22T22:52:06.803Z,1.00
2018-07-22T22:54:34.307Z,1.00
2018-07-22T22:57:01.732Z,1.00
2018-07-22T22:59:29.102Z,1.00
2018-07-22T23:01:57.072Z,1.00
2018-07-22T23:04:25.961Z,1.00
2018-07-22T23:06:53.326Z,1.00
2018-07-22T23:09:20.727Z,1.00
2018-07-22T23:11:49.375Z,1.00
2018-07-22T23:14:16.757Z,1.00
2018-07-22T23:16:44.121Z,1.00
2018-07-22T23:19:11.497Z,1.00
2018-07-22T23:21:39.045Z,1.00
2018-07-22T23:24:06.382Z,1.00
2018-07-22T23:26:33.800Z,1.00
2018-07-22T23:29:01.435Z,1.00
2018-07-22T23:31:29.192Z,1.00
2018-07-22T23:33:56.746Z,1.00
2018-07-22T23:36:24.085Z,1.00
2018-07-22T23:38:51.448Z,1.00
2018-07-22T23:41:19.064Z,1.00
2018-07-22T23:43:46.454Z,1.00
2018-07-22T23:46:13.876Z,1.00
2018-07-22T23:48:41.234Z,1.00
2018-07-22T23:51:08.596Z,1.00
2018-07-22T23:53:35.959Z,1.00
2018-07-22T23:56:03.325Z,1.00
2018-07-22T23:58:30.800Z,1.00
